createdAt,value
2023-05-11T00:01:22.280Z,62.10
2023-05-11T00:04:07.778Z,62.40
2023-05-11T00:06:55.279Z,63.40
2023-05-11T00:09:40.877Z,64.10
2023-05-11T00:12:26.340Z,64.70
2023-05-11T00:15:11.946Z,64.00
2023-05-11T00:17:57.677Z,63.10
2023-05-11T00:20:43.417Z,64.60
2023-05-11T00:23:29.017Z,62.80
2023-05-11T00:26:14.524Z,62.90
2023-05-11T00:29:00.056Z,62.10
2023-05-11T00:31:45.565Z,64.70
2023-05-11T00:34:30.957Z,63.70
2023-05-11T00:37:16.449Z,64.30
2023-05-11T00:40:02.225Z,62.50
2023-05-11T00:42:48.184Z,63.90
2023-05-11T00:45:35.125Z,65.20
2023-05-11T00:48:20.435Z,64.50
2023-05-11T00:51:06.499Z,65.30
2023-05-11T00:53:52.143Z,64.80
2023-05-11T00:56:37.914Z,65.10
2023-05-11T00:59:24.016Z,64.90
2023-05-11T01:02:09.749Z,64.50
2023-05-11T01:04:55.267Z,64.50
2023-05-11T01:08:02.311Z,64.70
2023-05-11T01:11:02.896Z,62.60
2023-05-11T01:14:00.183Z,63.80
2023-05-11T01:16:51.290Z,65.50
2023-05-11T01:19:51.152Z,65.00
2023-05-11T01:23:07.904Z,63.80
2023-05-11T01:26:43.004Z,66.70
2023-05-11T01:30:15.213Z,65.50
2023-05-11T01:33:11.211Z,64.40
2023-05-11T01:36:05.575Z,63.10
2023-05-11T01:38:53.507Z,63.00
2023-05-11T01:41:40.359Z,65.90
2023-05-11T01:44:30.636Z,67.10
2023-05-11T01:47:17.253Z,68.50
2023-05-11T01:50:04.905Z,65.80
2023-05-11T01:52:51.815Z,66.50
2023-05-11T01:55:38.145Z,63.80
2023-05-11T01:58:25.849Z,64.10
2023-05-11T02:01:13.373Z,68.00
2023-05-11T02:04:01.168Z,67.00
2023-05-11T02:06:48.927Z,67.30
2023-05-11T02:09:35.934Z,65.20
2023-05-11T02:12:22.831Z,67.10
2023-05-11T02:15:11.466Z,65.70
2023-05-11T02:17:57.498Z,65.70
2023-05-11T02:20:45.840Z,67.30
2023-05-11T02:23:33.431Z,67.50
2023-05-11T02:26:19.138Z,68.90
2023-05-11T02:29:11.723Z,67.60
2023-05-11T02:32:09.180Z,65.50
2023-05-11T02:35:26.080Z,66.30
2023-05-11T02:38:14.529Z,67.50
2023-05-11T02:41:12.165Z,64.30
2023-05-11T02:44:05.087Z,66.00
2023-05-11T02:46:52.977Z,66.20
2023-05-11T02:49:38.878Z,67.20
2023-05-11T02:52:27.364Z,66.90
2023-05-11T02:55:16.875Z,66.20
2023-05-11T02:58:03.070Z,64.90
2023-05-11T03:00:48.998Z,66.40
2023-05-11T03:03:34.759Z,66.00
2023-05-11T03:06:20.892Z,65.80
2023-05-11T03:09:09.842Z,65.10
2023-05-11T03:11:56.662Z,62.90
2023-05-11T03:14:43.225Z,61.90
2023-05-11T03:17:30.318Z,62.00
2023-05-11T03:20:17.497Z,61.10
2023-05-11T03:23:04.958Z,61.10
2023-05-11T03:25:51.059Z,61.70
2023-05-11T03:28:37.763Z,63.00
2023-05-11T03:31:23.642Z,64.50
2023-05-11T03:34:09.521Z,65.20
2023-05-11T03:36:57.693Z,65.30
2023-05-11T03:39:47.436Z,63.10
2023-05-11T03:42:34.993Z,61.40
2023-05-11T03:45:22.158Z,62.20
2023-05-11T03:48:09.522Z,61.10
2023-05-11T03:50:56.125Z,60.60
2023-05-11T03:53:41.884Z,60.80
2023-05-11T03:56:27.707Z,62.50
2023-05-11T03:59:16.860Z,63.30
2023-05-11T04:02:03.552Z,60.80
2023-05-11T04:04:49.296Z,60.30
2023-05-11T04:07:36.580Z,59.50
2023-05-11T04:10:22.437Z,59.30
2023-05-11T04:13:08.130Z,59.00
2023-05-11T04:15:54.456Z,59.10
2023-05-11T04:18:40.150Z,58.70
2023-05-11T04:21:25.606Z,58.40
2023-05-11T04:24:14.223Z,59.60
2023-05-11T04:27:00.244Z,57.50
2023-05-11T04:29:45.850Z,57.50
2023-05-11T04:32:31.198Z,57.70
2023-05-11T04:35:17.175Z,57.00
2023-05-11T04:38:02.450Z,57.80
2023-05-11T04:40:48.561Z,57.40
2023-05-11T04:43:35.094Z,57.60
2023-05-11T04:46:20.566Z,58.30
2023-05-11T04:49:06.632Z,58.10
2023-05-11T04:51:52.259Z,57.80
2023-05-11T04:54:37.695Z,57.80
2023-05-11T04:57:23.198Z,57.60
2023-05-11T05:00:09.846Z,57.80
2023-05-11T05:02:58.420Z,57.50
2023-05-11T05:05:43.919Z,59.90
2023-05-11T05:08:29.578Z,59.40
2023-05-11T05:11:15.231Z,59.80
2023-05-11T05:14:00.794Z,58.90
2023-05-11T05:16:46.157Z,58.80
2023-05-11T05:19:31.708Z,57.80
2023-05-11T05:22:18.269Z,56.90
2023-05-11T05:25:04.439Z,56.60
2023-05-11T05:27:50.409Z,56.40
2023-05-11T05:30:35.793Z,55.60
2023-05-11T05:33:21.345Z,55.60
2023-05-11T05:36:07.060Z,55.70
2023-05-11T05:38:52.689Z,55.50
2023-05-11T05:41:38.299Z,55.10
2023-05-11T05:44:23.804Z,54.80
2023-05-11T05:47:09.269Z,54.90
2023-05-11T05:49:54.674Z,54.50
2023-05-11T05:52:40.403Z,54.10
2023-05-11T05:55:25.938Z,54.00
2023-05-11T05:58:14.686Z,53.80
2023-05-11T06:01:00.926Z,53.70
2023-05-11T06:03:46.562Z,53.60
2023-05-11T06:06:32.234Z,53.60
2023-05-11T06:09:17.846Z,53.50
2023-05-11T06:12:04.614Z,53.30
2023-05-11T06:14:50.565Z,53.00
2023-05-11T06:17:35.979Z,52.80
2023-05-11T06:20:21.346Z,52.80
2023-05-11T06:23:07.068Z,52.40
2023-05-11T06:25:52.757Z,52.60
2023-05-11T06:28:38.256Z,52.40
2023-05-11T06:31:23.679Z,52.40
2023-05-11T06:34:08.870Z,52.20
2023-05-11T06:36:54.367Z,52.50
2023-05-11T06:39:39.945Z,52.50
2023-05-11T06:42:25.453Z,51.90
2023-05-11T06:45:11.172Z,52.10
2023-05-11T06:47:57.026Z,51.90
2023-05-11T06:50:42.934Z,51.50
2023-05-11T06:53:28.377Z,51.00
2023-05-11T06:56:13.850Z,50.60
2023-05-11T06:58:59.353Z,49.50
2023-05-11T07:01:44.768Z,48.50
2023-05-11T07:04:30.665Z,48.20
2023-05-11T07:07:16.154Z,48.20
2023-05-11T07:10:01.450Z,48.00
2023-05-11T07:12:46.977Z,47.20
2023-05-11T07:15:33.060Z,47.30
2023-05-11T07:18:21.315Z,47.10
2023-05-11T07:21:07.169Z,47.20
2023-05-11T07:23:52.555Z,47.30
2023-05-11T07:26:38.079Z,46.30
2023-05-11T07:29:23.494Z,46.60
2023-05-11T07:32:09.070Z,46.60
2023-05-11T07:34:54.318Z,46.40
2023-05-11T07:37:39.662Z,46.00
2023-05-11T07:40:25.305Z,46.10
2023-05-11T07:43:11.015Z,46.00
2023-05-11T07:45:56.687Z,45.80
2023-05-11T07:48:42.197Z,45.50
2023-05-11T07:51:28.099Z,45.40
2023-05-11T07:54:13.753Z,45.60
2023-05-11T07:56:59.053Z,45.80
2023-05-11T07:59:44.546Z,45.90
2023-05-11T08:02:30.320Z,45.80
2023-05-11T08:05:18.203Z,45.50
2023-05-11T08:08:05.103Z,45.40
2023-05-11T08:10:50.921Z,45.00
2023-05-11T08:13:36.135Z,44.70
2023-05-11T08:16:21.739Z,44.70
2023-05-11T08:19:07.886Z,44.90
2023-05-11T08:21:53.887Z,44.40
2023-05-11T08:24:39.405Z,44.60
2023-05-11T08:27:24.856Z,44.80
2023-05-11T08:30:11.844Z,45.20
2023-05-11T08:32:59.246Z,44.80
2023-05-11T08:35:45.137Z,44.70
2023-05-11T08:38:30.456Z,44.70
2023-05-11T08:41:15.827Z,44.50
2023-05-11T08:44:01.975Z,43.20
2023-05-11T08:46:49.847Z,44.60
2023-05-11T08:49:39.448Z,44.70
2023-05-11T08:52:26.481Z,44.60
2023-05-11T08:55:12.215Z,44.80
2023-05-11T08:58:00.863Z,44.00
2023-05-11T09:00:49.682Z,44.00
2023-05-11T09:03:36.382Z,44.40
2023-05-11T09:06:24.625Z,44.80
2023-05-11T09:09:10.003Z,44.70
2023-05-11T09:11:55.875Z,43.50
2023-05-11T09:14:41.677Z,44.40
2023-05-11T09:17:27.370Z,44.00
2023-05-11T09:20:13.059Z,43.90
2023-05-11T09:22:59.270Z,45.00
2023-05-11T09:25:45.008Z,44.60
2023-05-11T09:28:35.920Z,44.90
2023-05-11T09:31:49.417Z,44.80
2023-05-11T09:34:34.835Z,34.40
2023-05-11T09:37:20.358Z,45.00
2023-05-11T09:40:26.462Z,45.50
2023-05-11T09:43:30.265Z,45.90
2023-05-11T09:46:21.816Z,45.60
2023-05-11T09:49:08.505Z,46.80
2023-05-11T09:52:01.265Z,47.20
2023-05-11T09:54:51.112Z,46.40
2023-05-11T09:57:36.504Z,46.10
2023-05-11T10:00:21.966Z,46.10
2023-05-11T10:03:08.461Z,47.10
2023-05-11T10:06:01.640Z,46.40
2023-05-11T10:08:48.124Z,44.00
2023-05-11T10:11:33.593Z,45.40
2023-05-11T10:14:19.687Z,44.80
2023-05-11T10:17:05.587Z,45.30
2023-05-11T10:19:55.206Z,45.10
2023-05-11T10:22:41.203Z,45.60
2023-05-11T10:25:27.153Z,45.10
2023-05-11T10:28:13.079Z,46.00
2023-05-11T10:30:59.450Z,46.60
2023-05-11T10:33:46.414Z,46.40
2023-05-11T10:36:34.205Z,46.60
2023-05-11T10:39:19.844Z,45.00
2023-05-11T10:43:07.813Z,46.60
2023-05-11T10:46:52.740Z,36.50
2023-05-11T10:50:28.410Z,32.30
2023-05-11T10:53:37.587Z,32.00
2023-05-11T10:56:39.761Z,45.30
2023-05-11T10:59:50.864Z,41.90
2023-05-11T11:02:37.709Z,46.30
2023-05-11T11:05:36.709Z,49.40
2023-05-11T11:08:24.443Z,45.80
2023-05-11T11:11:37.418Z,50.90
2023-05-11T11:14:23.091Z,39.50
2023-05-11T11:17:20.598Z,51.40
2023-05-11T11:20:07.914Z,46.00
2023-05-11T11:22:53.453Z,51.30
2023-05-11T11:25:53.410Z,50.80
2023-05-11T11:28:57.340Z,30.40
2023-05-11T11:31:43.126Z,40.10
2023-05-11T11:34:28.700Z,52.40
2023-05-11T11:37:16.568Z,55.60
2023-05-11T11:40:13.055Z,58.90
2023-05-11T11:43:16.257Z,59.40
2023-05-11T11:46:05.727Z,54.70
2023-05-11T11:48:54.380Z,59.90
2023-05-11T11:51:40.861Z,56.00
2023-05-11T11:54:44.784Z,52.20
2023-05-11T11:57:30.190Z,34.10
2023-05-11T12:00:21.387Z,47.10
2023-05-11T12:03:07.933Z,44.50
2023-05-11T12:06:01.117Z,46.90
2023-05-11T12:08:46.772Z,41.10
2023-05-11T12:11:33.670Z,46.70
2023-05-11T12:14:20.695Z,47.70
2023-05-11T12:17:08.927Z,49.50
2023-05-11T12:19:54.773Z,50.00
2023-05-11T12:22:41.135Z,49.90
2023-05-11T12:25:26.584Z,50.70
2023-05-11T12:28:12.213Z,52.50
2023-05-11T12:31:00.398Z,55.40
2023-05-11T12:33:51.366Z,58.10
2023-05-11T12:36:36.956Z,58.80
2023-05-11T12:39:26.661Z,59.30
2023-05-11T12:42:19.190Z,58.70
2023-05-11T12:45:09.462Z,57.50
2023-05-11T12:47:56.682Z,57.40
2023-05-11T12:50:44.957Z,50.00
2023-05-11T12:53:36.592Z,48.00
2023-05-11T12:56:22.185Z,46.50
2023-05-11T12:59:41.790Z,50.40
2023-05-11T13:02:27.521Z,34.80
2023-05-11T13:05:14.394Z,51.00
2023-05-11T13:08:03.728Z,51.80
2023-05-11T13:10:49.327Z,51.90
2023-05-11T13:13:34.836Z,51.40
2023-05-11T13:16:32.728Z,52.60
2023-05-11T13:19:31.506Z,51.60
2023-05-11T13:22:17.035Z,50.90
2023-05-11T13:25:02.840Z,50.90
2023-05-11T13:27:48.341Z,48.00
2023-05-11T13:30:35.375Z,45.00
2023-05-11T13:33:21.449Z,44.50
2023-05-11T13:36:07.550Z,45.80
2023-05-11T13:38:53.154Z,47.90
2023-05-11T13:41:38.663Z,49.70
2023-05-11T13:44:24.606Z,49.90
2023-05-11T13:47:10.027Z,50.30
2023-05-11T13:49:56.715Z,48.70
2023-05-11T13:52:42.612Z,50.30
2023-05-11T13:55:29.160Z,50.40
2023-05-11T13:58:14.572Z,51.10
2023-05-11T14:01:08.054Z,51.30
2023-05-11T14:03:56.758Z,51.10
2023-05-11T14:06:42.619Z,50.60
2023-05-11T14:09:27.987Z,49.90
2023-05-11T14:12:13.407Z,49.40
2023-05-11T14:14:58.749Z,49.30
2023-05-11T14:17:44.269Z,49.10
2023-05-11T14:20:29.887Z,48.90
2023-05-11T14:23:15.349Z,48.10
2023-05-11T14:26:01.490Z,47.50
2023-05-11T14:28:47.054Z,47.50
2023-05-11T14:31:33.836Z,47.30
2023-05-11T14:34:19.500Z,47.40
2023-05-11T14:37:05.697Z,47.30
2023-05-11T14:39:51.376Z,47.40
2023-05-11T14:42:36.938Z,46.70
2023-05-11T14:45:22.582Z,46.80
2023-05-11T14:48:11.345Z,46.60
2023-05-11T14:50:56.884Z,46.10
2023-05-11T14:53:42.351Z,46.10
2023-05-11T14:56:28.006Z,45.70
2023-05-11T14:59:13.499Z,45.80
2023-05-11T15:01:59.098Z,45.20
2023-05-11T15:04:44.850Z,45.30
2023-05-11T15:07:30.248Z,44.90
2023-05-11T15:10:15.552Z,44.50
2023-05-11T15:13:01.330Z,45.30
2023-05-11T15:15:47.071Z,45.50
2023-05-11T15:18:32.765Z,45.10
2023-05-11T15:21:18.552Z,45.20
2023-05-11T15:24:04.745Z,45.50
2023-05-11T15:26:50.444Z,45.40
2023-05-11T15:29:35.965Z,45.30
2023-05-11T15:32:21.519Z,45.00
2023-05-11T15:35:07.380Z,45.20
2023-05-11T15:37:53.016Z,45.20
2023-05-11T15:40:38.891Z,44.90
2023-05-11T15:43:24.712Z,45.10
2023-05-11T15:46:10.063Z,45.30
2023-05-11T15:48:57.556Z,45.30
2023-05-11T15:51:44.509Z,45.30
2023-05-11T15:54:29.902Z,45.30
2023-05-11T15:57:22.289Z,45.40
2023-05-11T16:00:09.249Z,45.80
2023-05-11T16:02:54.878Z,45.60
2023-05-11T16:05:40.928Z,45.10
2023-05-11T16:08:26.366Z,45.30
2023-05-11T16:11:11.735Z,45.40
2023-05-11T16:13:57.528Z,45.60
2023-05-11T16:16:43.412Z,45.10
2023-05-11T16:19:28.926Z,45.00
2023-05-11T16:22:14.268Z,45.30
2023-05-11T16:24:59.671Z,45.50
2023-05-11T16:27:45.703Z,45.30
2023-05-11T16:30:31.797Z,45.00
2023-05-11T16:33:17.665Z,45.10
2023-05-11T16:36:04.702Z,45.20
2023-05-11T16:38:50.085Z,45.10
2023-05-11T16:41:35.546Z,45.30
2023-05-11T16:44:21.152Z,45.30
2023-05-11T16:47:06.583Z,45.30
2023-05-11T16:49:52.108Z,45.40
2023-05-11T16:52:37.505Z,45.70
2023-05-11T16:55:23.031Z,45.60
2023-05-11T16:58:09.316Z,45.80
2023-05-11T17:00:54.981Z,46.20
2023-05-11T17:03:40.897Z,46.00
2023-05-11T17:06:26.874Z,46.10
2023-05-11T17:09:13.275Z,46.30
2023-05-11T17:11:58.881Z,46.30
2023-05-11T17:14:44.261Z,46.30
2023-05-11T17:17:29.815Z,46.40
2023-05-11T17:20:15.326Z,46.60
2023-05-11T17:23:00.596Z,46.80
2023-05-11T17:25:46.086Z,46.70
2023-05-11T17:28:31.796Z,46.80
2023-05-11T17:31:17.523Z,46.90
2023-05-11T17:34:03.446Z,47.00
2023-05-11T17:36:49.208Z,46.90
2023-05-11T17:39:34.732Z,46.90
2023-05-11T17:42:20.323Z,47.10
2023-05-11T17:45:07.137Z,47.20
2023-05-11T17:47:52.581Z,47.20
2023-05-11T17:50:38.198Z,47.20
2023-05-11T17:53:23.781Z,47.40
2023-05-11T17:56:09.156Z,47.30
2023-05-11T17:58:54.715Z,47.20
2023-05-11T18:01:41.812Z,47.30
2023-05-11T18:04:27.597Z,47.20
2023-05-11T18:07:12.973Z,47.30
2023-05-11T18:09:58.350Z,47.30
2023-05-11T18:12:44.274Z,47.20
2023-05-11T18:15:29.948Z,47.30
2023-05-11T18:18:16.483Z,47.20
2023-05-11T18:21:06.557Z,47.20
2023-05-11T18:23:51.888Z,47.30
2023-05-11T18:26:37.352Z,47.20
2023-05-11T18:29:23.473Z,47.50
2023-05-11T18:32:09.150Z,47.50
2023-05-11T18:34:54.671Z,47.50
2023-05-11T18:37:40.256Z,48.30
2023-05-11T18:40:25.895Z,47.60
2023-05-11T18:43:11.338Z,47.50
2023-05-11T18:45:57.257Z,47.50
2023-05-11T18:48:43.013Z,47.60
2023-05-11T18:51:28.835Z,47.70
2023-05-11T18:54:14.376Z,47.80
2023-05-11T18:56:59.796Z,47.70
2023-05-11T18:59:45.371Z,47.70
2023-05-11T19:02:33.194Z,47.70
2023-05-11T19:05:18.947Z,47.70
2023-05-11T19:08:04.673Z,48.00
2023-05-11T19:10:50.189Z,47.80
2023-05-11T19:13:35.761Z,47.90
2023-05-11T19:16:21.173Z,48.20
2023-05-11T19:19:06.926Z,48.20
2023-05-11T19:21:55.570Z,48.10
2023-05-11T19:24:40.777Z,48.70
2023-05-11T19:27:26.397Z,48.80
2023-05-11T19:30:12.566Z,49.00
2023-05-11T19:32:58.061Z,49.50
2023-05-11T19:35:43.486Z,49.50
2023-05-11T19:38:29.048Z,49.70
2023-05-11T19:41:14.603Z,49.60
2023-05-11T19:44:05.664Z,49.60
2023-05-11T19:46:51.348Z,49.70
2023-05-11T19:49:39.877Z,50.40
2023-05-11T19:52:25.723Z,50.10
2023-05-11T19:55:11.248Z,50.90
2023-05-11T19:57:56.731Z,50.20
2023-05-11T20:00:42.347Z,50.50
2023-05-11T20:03:30.820Z,50.20
2023-05-11T20:06:19.513Z,50.20
2023-05-11T20:09:05.383Z,50.10
2023-05-11T20:11:51.227Z,50.70
2023-05-11T20:14:37.101Z,50.50
2023-05-11T20:17:22.771Z,51.00
2023-05-11T20:20:09.245Z,51.50
2023-05-11T20:22:54.608Z,51.20
2023-05-11T20:25:40.340Z,50.70
2023-05-11T20:28:25.818Z,51.00
2023-05-11T20:31:11.719Z,50.70
2023-05-11T20:36:45.601Z,51.70
2023-05-11T20:39:31.210Z,52.30
2023-05-11T20:42:16.599Z,51.80
2023-05-11T20:45:02.080Z,52.20
2023-05-11T20:47:47.728Z,51.80
2023-05-11T20:50:33.084Z,52.50
2023-05-11T20:53:18.926Z,52.90
2023-05-11T20:56:04.308Z,53.10
2023-05-11T20:58:49.717Z,53.30
2023-05-11T21:01:35.274Z,53.60
2023-05-11T21:04:20.777Z,53.00
2023-05-11T21:07:06.285Z,53.10
2023-05-11T21:09:51.797Z,52.70
2023-05-11T21:12:41.638Z,53.10
2023-05-11T21:15:28.044Z,53.80
2023-05-11T21:18:14.624Z,53.30
2023-05-11T21:21:04.320Z,53.50
2023-05-11T21:23:49.651Z,53.80
2023-05-11T21:26:35.216Z,53.70
2023-05-11T21:29:20.529Z,53.60
2023-05-11T21:32:06.599Z,53.20
2023-05-11T21:34:51.943Z,54.10
2023-05-11T21:37:37.595Z,54.00
2023-05-11T21:40:23.124Z,54.30
2023-05-11T21:43:10.495Z,54.50
2023-05-11T21:45:59.944Z,54.10
2023-05-11T21:48:45.199Z,53.90
2023-05-11T21:51:30.650Z,54.50
2023-05-11T21:54:16.196Z,54.60
2023-05-11T21:57:01.540Z,54.80
2023-05-11T21:59:47.690Z,55.10
2023-05-11T22:02:34.286Z,54.50
2023-05-11T22:05:19.580Z,54.90
2023-05-11T22:08:14.073Z,54.40
2023-05-11T22:11:01.399Z,54.20
2023-05-11T22:13:46.892Z,54.70
2023-05-11T22:16:32.832Z,54.70
2023-05-11T22:19:18.536Z,54.80
2023-05-11T22:22:04.285Z,54.50
2023-05-11T22:24:50.103Z,55.00
2023-05-11T22:27:35.648Z,55.00
2023-05-11T22:30:21.432Z,54.40
2023-05-11T22:33:07.633Z,54.10
2023-05-11T22:35:53.308Z,55.00
2023-05-11T22:38:39.017Z,54.10
2023-05-11T22:41:24.739Z,55.10
2023-05-11T22:44:10.500Z,55.50
2023-05-11T22:46:56.079Z,55.10
2023-05-11T22:49:41.658Z,54.50
2023-05-11T22:52:26.865Z,54.80
2023-05-11T22:55:12.460Z,55.70
2023-05-11T22:57:57.854Z,55.70
2023-05-11T23:00:43.648Z,56.10
2023-05-11T23:03:29.149Z,54.60
2023-05-11T23:06:14.602Z,54.70
2023-05-11T23:08:59.921Z,55.30
2023-05-11T23:11:45.415Z,55.40
2023-05-11T23:14:30.923Z,55.80
2023-05-11T23:17:16.526Z,55.30
2023-05-11T23:20:02.852Z,55.50
2023-05-11T23:22:48.198Z,55.20
2023-05-11T23:25:33.566Z,55.90
2023-05-11T23:28:20.376Z,55.70
2023-05-11T23:31:05.966Z,55.20
2023-05-11T23:33:51.947Z,55.30
2023-05-11T23:36:37.407Z,55.40
2023-05-11T23:39:22.959Z,55.60
2023-05-11T23:42:08.485Z,56.20
2023-05-11T23:44:53.921Z,56.10
2023-05-11T23:47:39.417Z,56.40
2023-05-11T23:50:24.772Z,57.20
2023-05-11T23:53:10.149Z,56.60
2023-05-11T23:55:55.561Z,56.70
2023-05-11T23:58:41.039Z,57.60
